Time;durP1;ratioP1;P1;durP2;ratioP2;P2;SDS_P1;SDS_P2;PMS_P1;PMS_P2;Temp;Humidity;BMP_temperature;BMP_pressure;BME280_temperature;BME280_humidity;BME280_pressure;Samples;Min_cycle;Max_cycle;Signal;HPM_P1;HPM_P2
2022/06/23 00:01:20;;;;;;;12.27;7.30;;;;;;;13.91;100.00;101420.59;5050976;28;20032;-75
2022/06/23 00:03:48;;;;;;;17.15;7.22;;;;;;;13.87;100.00;101411.22;5050708;28;20032;-75
2022/06/23 00:06:42;;;;;;;14.13;7.93;;;;;;;13.87;100.00;101413.88;5050758;28;20048;-74
2022/06/23 00:09:35;;;;;;;16.90;8.52;;;;;;;13.79;100.00;101411.91;5052819;28;20062;-75
2022/06/23 00:12:13;;;;;;;17.48;8.38;;;;;;;13.78;100.00;101425.44;5053065;28;20017;-75
2022/06/23 00:14:38;;;;;;;13.32;7.50;;;;;;;13.71;100.00;101415.31;5054307;28;20025;-75
2022/06/23 00:17:22;;;;;;;12.68;8.00;;;;;;;13.67;100.00;101413.94;5052825;28;20070;-76
2022/06/23 00:19:48;;;;;;;20.85;8.95;;;;;;;13.65;100.00;101415.09;5054306;28;20028;-75
2022/06/23 00:22:17;;;;;;;16.90;8.80;;;;;;;13.61;100.00;101405.66;5054445;28;20029;-76
2022/06/23 00:24:44;;;;;;;16.48;7.43;;;;;;;13.57;100.00;101405.13;5054525;28;20114;-76
2022/06/23 00:27:16;;;;;;;14.40;7.90;;;;;;;13.55;100.00;101409.75;5052348;28;20021;-76
2022/06/23 00:29:44;;;;;;;15.02;8.27;;;;;;;13.52;100.00;101396.69;5054499;28;20040;-76
2022/06/23 00:32:11;;;;;;;12.50;7.63;;;;;;;13.50;100.00;101393.31;5054135;28;20121;-76
2022/06/23 00:34:39;;;;;;;10.57;7.30;;;;;;;13.47;100.00;101398.94;5053893;28;20028;-77
2022/06/23 00:37:17;;;;;;;13.15;7.20;;;;;;;13.43;100.00;101398.38;5054275;28;20363;-76
2022/06/23 00:39:50;;;;;;;17.50;7.88;;;;;;;13.42;100.00;101393.19;5054071;28;20049;-76
2022/06/23 00:42:23;;;;;;;12.95;7.13;;;;;;;13.38;100.00;101388.13;5054009;28;20043;-76
2022/06/23 00:44:55;;;;;;;18.25;7.60;;;;;;;13.39;100.00;101384.47;5053777;28;20369;-76
2022/06/23 00:47:26;;;;;;;14.38;7.40;;;;;;;13.37;100.00;101389.09;5054082;28;20205;-76
2022/06/23 00:50:03;;;;;;;18.70;7.65;;;;;;;13.39;100.00;101384.47;5054083;28;20059;-76
2022/06/23 00:52:37;;;;;;;12.75;7.53;;;;;;;13.36;100.00;101394.59;5054486;28;20047;-76
2022/06/23 00:55:12;;;;;;;18.48;7.70;;;;;;;13.35;100.00;101391.09;5054022;28;20036;-76
2022/06/23 00:57:49;;;;;;;11.18;6.82;;;;;;;13.32;100.00;101396.69;5054000;28;20077;-77
2022/06/23 01:00:20;;;;;;;13.45;6.78;;;;;;;13.28;100.00;101397.94;5054034;28;20441;-76
2022/06/23 01:03:12;;;;;;;16.80;7.93;;;;;;;13.24;100.00;101396.53;5054133;28;20356;-76
2022/06/23 01:05:42;;;;;;;;;;;;;;;13.20;100.00;101389.81;5034375;28;20033;-76
2022/06/23 01:08:29;;;;;;;10.77;7.50;;;;;;;13.14;100.00;101379.72;5053909;28;20402;-76
2022/06/23 01:11:20;;;;;;;13.90;7.60;;;;;;;13.09;100.00;101377.44;5054072;28;20036;-76
2022/06/23 01:13:55;;;;;;;13.10;7.53;;;;;;;13.07;100.00;101381.25;5053745;28;20025;-76
2022/06/23 01:16:42;;;;;;;13.35;7.80;;;;;;;13.07;100.00;101379.41;5054031;28;20082;-76
2022/06/23 01:19:29;;;;;;;15.27;8.15;;;;;;;13.05;100.00;101376.88;5054291;28;20043;-76
2022/06/23 01:21:59;;;;;;;14.23;7.53;;;;;;;13.03;100.00;101386.03;5054336;28;20096;-76
2022/06/23 01:24:35;;;;;;;15.80;7.75;;;;;;;12.99;100.00;101388.16;5064688;28;20025;-76
2022/06/23 01:27:27;;;;;;;13.40;7.85;;;;;;;12.96;100.00;101390.28;5062957;28;20331;-76
2022/06/23 01:29:59;;;;;;;14.43;7.82;;;;;;;12.92;100.00;101389.69;5053720;28;20051;-76
2022/06/23 01:32:24;;;;;;;13.50;8.43;;;;;;;12.91;100.00;101390.66;5053322;28;20418;-75
2022/06/23 01:35:06;;;;;;;15.02;8.48;;;;;;;12.91;100.00;101392.50;5053909;28;20104;-76
2022/06/23 01:37:50;;;;;;;18.83;9.25;;;;;;;12.91;100.00;101392.50;5052631;28;20410;-76
2022/06/23 01:40:18;;;;;;;15.38;8.75;;;;;;;12.87;100.00;101395.47;5053003;28;20021;-76
2022/06/23 01:42:52;;;;;;;17.60;8.52;;;;;;;12.86;100.00;101395.59;5053054;28;20093;-76
2022/06/23 01:45:32;;;;;;;11.55;7.15;;;;;;;12.83;100.00;101401.22;5053492;28;20124;-76
2022/06/23 01:48:51;;;;;;;14.13;7.63;;;;;;;12.77;100.00;101391.09;5053293;28;20037;-76
2022/06/23 01:51:04;;;;;;;15.35;7.28;;;;;;;12.73;100.00;101393.19;5052374;28;20048;-76
2022/06/23 01:53:33;;;;;;;15.85;8.27;;;;;;;12.70;100.00;101382.78;5053030;28;20029;-76
2022/06/23 01:56:36;;;;;;;13.10;7.88;;;;;;;12.66;100.00;101390.25;5052581;28;20481;-76
2022/06/23 01:59:26;;;;;;;14.90;8.18;;;;;;;12.64;100.00;101388.69;5052717;28;20064;-76
2022/06/23 02:02:10;;;;;;;15.27;8.13;;;;;;;12.58;100.00;101383.91;5051940;28;20056;-75
2022/06/23 02:04:48;;;;;;;17.80;8.60;;;;;;;12.56;100.00;101377.88;5050921;28;20116;-75
2022/06/23 02:07:29;;;;;;;14.05;8.30;;;;;;;12.53;100.00;101374.50;5053166;28;20016;-75
2022/06/23 02:10:03;;;;;;;16.50;8.65;;;;;;;12.52;100.00;101375.50;5052791;28;20036;-75
2022/06/23 02:12:46;;;;;;;13.93;8.38;;;;;;;12.50;100.00;101373.94;5051324;28;20052;-75
2022/06/23 02:15:18;;;;;;;16.17;9.30;;;;;;;12.49;100.00;101375.75;5052406;28;20377;-74
2022/06/23 02:17:57;;;;;;;13.02;8.50;;;;;;;12.47;100.00;101368.88;5052226;28;20028;-76
2022/06/23 02:20:40;;;;;;;17.00;9.30;;;;;;;12.45;100.00;101362.81;5052652;28;20479;-76
2022/06/23 02:23:26;;;;;;;17.27;8.52;;;;;;;12.48;100.00;101365.22;5051969;28;20024;-75
2022/06/23 02:25:59;;;;;;;14.68;9.45;;;;;;;12.49;100.00;101362.41;5052210;28;20028;-75
2022/06/23 02:28:34;;;;;;;14.65;8.55;;;;;;;12.46;100.00;101364.53;5052296;28;20449;-75
2022/06/23 02:31:06;;;;;;;15.68;9.25;;;;;;;12.43;100.00;101364.78;5051781;28;20032;-75
2022/06/23 02:33:38;;;;;;;16.52;9.80;;;;;;;12.43;100.00;101370.13;5051382;28;20101;-75
2022/06/23 02:36:29;;;;;;;22.48;9.48;;;;;;;12.43;100.00;101372.81;5051741;28;20021;-75
2022/06/23 02:38:59;;;;;;;15.65;8.65;;;;;;;12.40;100.00;101370.41;5051382;28;20045;-76
2022/06/23 02:41:27;;;;;;;15.23;9.15;;;;;;;12.39;100.00;101374.06;5051749;28;20048;-76
2022/06/23 02:44:14;;;;;;;21.33;10.40;;;;;;;12.34;100.00;101377.97;5051586;28;20449;-75
2022/06/23 02:46:58;;;;;;;11.32;8.65;;;;;;;12.31;100.00;101378.25;5051726;28;20111;-75
2022/06/23 02:49:32;;;;;;;16.98;10.30;;;;;;;12.32;100.00;101365.78;5051491;28;20039;-75
2022/06/23 02:52:41;;;;;;;14.45;8.95;;;;;;;12.31;100.00;101361.41;5051275;28;20111;-75
2022/06/23 02:55:32;;;;;;;18.98;10.27;;;;;;;12.31;100.00;101354.22;5009231;28;20026;-76
2022/06/23 02:58:09;;;;;;;17.80;11.27;;;;;;;12.35;100.00;101352.97;4992880;28;20026;-76
2022/06/23 03:01:09;;;;;;;18.15;9.55;;;;;;;12.33;100.00;101352.28;5040907;28;20456;-75
2022/06/23 03:04:11;;;;;;;18.45;9.90;;;;;;;12.32;100.00;101345.25;5048008;28;20033;-75
2022/06/23 03:06:42;;;;;;;14.73;10.07;;;;;;;12.31;100.00;101335.56;5051323;28;20372;-76
2022/06/23 03:09:17;;;;;;;19.05;11.45;;;;;;;12.36;100.00;101332.50;5051846;28;20372;-76
2022/06/23 03:11:55;;;;;;;22.65;11.23;;;;;;;12.36;100.00;101337.84;5051985;28;20360;-76
2022/06/23 03:14:42;;;;;;;19.88;10.48;;;;;;;12.39;100.00;101347.38;5051580;28;20025;-75
2022/06/23 03:17:13;;;;;;;17.83;10.20;;;;;;;12.39;100.00;101353.56;5051597;28;20021;-75
2022/06/23 03:19:44;;;;;;;17.38;9.68;;;;;;;12.39;100.00;101342.03;5051473;28;20100;-75
2022/06/23 03:22:25;;;;;;;20.65;9.98;;;;;;;12.44;100.00;101337.13;5051542;28;20071;-75
2022/06/23 03:25:22;;;;;;;22.25;9.68;;;;;;;12.43;100.00;101338.09;5051657;28;20100;-75
2022/06/23 03:27:54;;;;;;;17.15;9.80;;;;;;;12.43;100.00;101338.94;5042067;28;20119;-75
2022/06/23 03:30:46;;;;;;;19.70;10.75;;;;;;;12.44;100.00;101339.81;5050028;28;20108;-75
2022/06/23 03:33:33;;;;;;;19.27;10.25;;;;;;;12.41;100.00;101330.25;5050968;28;20032;-75
2022/06/23 03:36:11;;;;;;;15.50;8.70;;;;;;;12.41;100.00;101340.09;5051119;28;20040;-75
2022/06/23 03:41:36;;;;;;;20.08;10.40;;;;;;;12.45;100.00;101334.31;5051174;28;20097;-75
2022/06/23 03:44:21;;;;;;;17.98;10.40;;;;;;;12.45;100.00;101326.31;5052771;28;20128;-75
2022/06/23 03:47:08;;;;;;;17.67;9.52;;;;;;;12.45;100.00;101315.66;5055320;28;20025;-75
2022/06/23 03:49:48;;;;;;;24.40;11.32;;;;;;;12.49;100.00;101318.88;5054631;28;20453;-74
2022/06/23 03:52:22;;;;;;;19.77;10.30;;;;;;;12.51;100.00;101320.41;5054778;28;20430;-75
2022/06/23 03:54:54;;;;;;;16.77;10.80;;;;;;;12.54;100.00;101324.66;5055067;28;20111;-75
2022/06/23 03:57:42;;;;;;;18.92;9.27;;;;;;;12.57;100.00;101323.50;5053737;28;20416;-75
2022/06/23 04:00:24;;;;;;;20.77;10.07;;;;;;;12.61;100.00;101323.06;5054536;28;20036;-75
2022/06/23 04:03:03;;;;;;;;;;;;;;;12.65;100.00;101311.13;5054955;28;20029;-75
2022/06/23 04:05:58;;;;;;;16.30;9.98;;;;;;;12.67;100.00;101314.53;5054713;28;19905;-75
2022/06/23 04:08:28;;;;;;;18.35;10.57;;;;;;;12.72;100.00;101308.75;5054140;28;20028;-75
2022/06/23 04:10:58;;;;;;;16.73;10.07;;;;;;;12.75;100.00;101299.59;5054321;28;20029;-76
2022/06/23 04:13:23;;;;;;;20.38;10.23;;;;;;;12.81;100.00;101296.41;5054698;28;20044;-75
2022/06/23 04:15:52;;;;;;;15.40;9.55;;;;;;;12.87;100.00;101302.00;5054080;28;20056;-75
2022/06/23 04:18:25;;;;;;;19.52;9.45;;;;;;;12.94;100.00;101296.91;5054399;28;20093;-75
2022/06/23 04:20:58;;;;;;;14.77;9.18;;;;;;;12.99;100.00;101305.34;5054013;28;20157;-75
2022/06/23 04:23:32;;;;;;;21.02;9.52;;;;;;;13.05;100.00;101296.75;5054561;28;20040;-75
2022/06/23 04:26:00;;;;;;;14.07;8.75;;;;;;;13.11;100.00;101306.03;5054231;28;20453;-76
2022/06/23 04:28:44;;;;;;;16.10;8.68;;;;;;;13.21;100.00;101300.63;5054322;28;20031;-75
2022/06/23 04:31:16;;;;;;;14.93;8.48;;;;;;;13.26;100.00;101300.22;5054443;28;20110;-75
2022/06/23 04:33:44;;;;;;;11.20;8.20;;;;;;;13.30;100.00;101301.59;5054176;28;20056;-75
2022/06/23 04:36:29;;;;;;;20.05;8.50;;;;;;;13.36;100.00;101295.69;5054023;28;20028;-75
2022/06/23 04:39:00;;;;;;;16.48;8.73;;;;;;;13.40;100.00;101286.41;5053875;28;20453;-75
2022/06/23 04:41:41;;;;;;;16.73;8.52;;;;;;;13.46;100.00;101299.19;5052699;28;20031;-74
2022/06/23 04:44:22;;;;;;;13.25;8.07;;;;;;;13.52;100.00;101293.25;5054261;28;20059;-76
2022/06/23 04:46:52;;;;;;;11.52;8.50;;;;;;;13.58;100.00;101292.69;5053532;28;20073;-74
2022/06/23 04:49:30;;;;;;;13.80;8.37;;;;;;;13.64;100.00;101299.25;5053578;28;20024;-75
2022/06/23 04:52:12;;;;;;;18.23;9.60;;;;;;;13.70;100.00;101300.50;5053206;28;20603;-74
2022/06/23 04:54:44;;;;;;;13.68;8.55;;;;;;;13.77;100.00;101301.59;5053907;28;20071;-75
2022/06/23 04:57:19;;;;;;;21.75;8.27;;;;;;;13.82;100.00;101293.13;5054027;28;20528;-74
2022/06/23 04:59:48;;;;;;;13.07;8.23;;;;;;;13.88;100.00;101295.19;5054682;28;20352;-74
2022/06/23 05:02:19;;;;;;;11.45;7.90;;;;;;;13.93;100.00;101292.94;5054133;28;20464;-75
2022/06/23 05:04:46;;;;;;;;;;;;;;;13.98;100.00;101297.81;5055126;28;20409;-73
2022/06/23 05:07:23;;;;;;;11.57;7.97;;;;;;;14.02;100.00;101304.56;5054064;28;20285;-74
2022/06/23 05:09:51;;;;;;;16.30;9.13;;;;;;;14.07;100.00;101310.28;5054197;28;20096;-74
2022/06/23 05:12:24;;;;;;;22.67;9.65;;;;;;;14.13;100.00;101311.53;5053676;28;20032;-74
2022/06/23 05:14:59;;;;;;;13.73;8.43;;;;;;;14.17;100.00;101316.41;5054677;28;20135;-74
2022/06/23 05:17:31;;;;;;;11.23;7.75;;;;;;;14.22;100.00;101306.09;5054213;28;20036;-75
2022/06/23 05:20:02;;;;;;;12.85;7.80;;;;;;;14.30;100.00;101310.69;5054463;28;20025;-75
2022/06/23 05:22:35;;;;;;;14.73;8.27;;;;;;;14.35;100.00;101311.09;5054472;28;20044;-74
2022/06/23 05:25:27;;;;;;;12.50;7.47;;;;;;;14.42;100.00;101300.59;5054416;28;20036;-74
2022/06/23 05:27:53;;;;;;;11.93;8.15;;;;;;;14.50;100.00;101307.88;5054613;28;20037;-74
2022/06/23 05:30:28;;;;;;;15.88;8.25;;;;;;;14.55;100.00;101310.94;5053770;28;20025;-74
2022/06/23 05:33:04;;;;;;;14.50;8.10;;;;;;;14.62;100.00;101304.81;5054354;28;20037;-73
2022/06/23 05:35:38;;;;;;;10.77;7.25;;;;;;;14.72;100.00;101301.22;5054146;28;20456;-72
2022/06/23 05:38:16;;;;;;;10.85;7.28;;;;;;;14.83;100.00;101300.97;5053546;28;20470;-75
2022/06/23 05:40:53;;;;;;;10.05;7.45;;;;;;;14.92;100.00;101308.06;5053456;28;20353;-73
2022/06/23 05:43:19;;;;;;;11.32;7.85;;;;;;;15.05;100.00;101306.81;5053304;28;20107;-73
2022/06/23 05:45:48;;;;;;;10.88;8.15;;;;;;;15.17;100.00;101305.56;5053570;28;20031;-74
2022/06/23 05:48:19;;;;;;;14.98;7.53;;;;;;;15.33;100.00;101305.69;5053408;28;20021;-74
2022/06/23 05:51:01;;;;;;;12.43;7.15;;;;;;;15.49;100.00;101306.75;5054046;28;20021;-72
2022/06/23 05:53:31;;;;;;;10.98;6.60;;;;;;;15.65;98.13;101303.31;5053191;28;20025;-73
2022/06/23 05:56:23;;;;;;;12.18;7.18;;;;;;;15.81;97.08;101303.41;5053424;28;20028;-73
2022/06/23 05:58:56;;;;;;;10.93;7.03;;;;;;;16.02;95.75;101311.03;5052738;28;20441;-73
2022/06/23 06:01:27;;;;;;;11.60;6.70;;;;;;;16.25;94.63;101309.56;5052554;28;20338;-74
2022/06/23 06:04:15;;;;;;;;;;;;;;;16.43;93.96;101309.44;5053860;28;20064;-74
2022/06/23 06:06:41;;;;;;;13.98;6.43;;;;;;;16.64;92.58;101299.00;5052857;28;19905;-73
2022/06/23 06:11:58;;;;;;;11.80;7.00;;;;;;;17.00;89.22;101303.22;5053585;28;20044;-74
2022/06/23 06:14:27;;;;;;;10.90;7.07;;;;;;;17.15;88.85;101301.50;5052461;28;20025;-74
2022/06/23 06:16:53;;;;;;;12.75;6.28;;;;;;;17.34;87.27;101302.16;5052987;28;20032;-75
2022/06/23 06:19:21;;;;;;;11.70;5.80;;;;;;;17.48;86.35;101298.75;5052632;28;20021;-76
2022/06/23 06:21:48;;;;;;;10.48;6.10;;;;;;;17.68;85.77;101290.28;5051434;28;20017;-75
2022/06/23 06:24:25;;;;;;;13.82;6.88;;;;;;;17.82;83.38;101288.69;5052306;28;20090;-76
2022/06/23 06:26:52;;;;;;;10.60;5.85;;;;;;;17.97;83.17;101282.44;5053386;28;20031;-76
2022/06/23 06:29:33;;;;;;;10.52;5.93;;;;;;;18.12;79.74;101282.50;5052562;28;20036;-75
2022/06/23 06:32:31;;;;;;;8.60;5.97;;;;;;;18.17;78.83;101276.59;5052629;28;20449;-76
2022/06/23 06:35:18;;;;;;;12.75;6.47;;;;;;;18.30;79.03;101284.03;5052605;28;20116;-75
2022/06/23 06:37:59;;;;;;;12.35;6.15;;;;;;;18.47;79.01;101282.91;5052211;28;20032;-74
2022/06/23 06:40:25;;;;;;;10.65;5.90;;;;;;;18.60;77.29;101279.63;5052828;28;20021;-74
2022/06/23 06:43:01;;;;;;;12.30;6.03;;;;;;;18.73;76.71;101270.06;5052139;28;20111;-75
2022/06/23 06:45:32;;;;;;;13.20;6.05;;;;;;;18.82;75.06;101277.06;5052220;28;20373;-75
2022/06/23 06:47:58;;;;;;;10.32;6.60;;;;;;;18.89;75.04;101264.56;5051558;28;20094;-75
2022/06/23 06:50:28;;;;;;;10.50;5.80;;;;;;;19.03;74.90;101260.19;5052122;28;20032;-75
2022/06/23 06:52:55;;;;;;;11.18;5.70;;;;;;;19.20;76.80;101259.00;5052392;28;20029;-76
2022/06/23 06:55:41;;;;;;;11.02;6.18;;;;;;;19.24;73.76;101254.06;5052339;28;20037;-74
2022/06/23 06:58:16;;;;;;;9.38;5.57;;;;;;;19.38;73.08;101257.81;5051787;28;20020;-75
2022/06/23 07:00:55;;;;;;;10.90;6.18;;;;;;;19.48;70.81;101258.34;5052488;28;20060;-75
2022/06/23 07:03:23;;;;;;;9.70;5.40;;;;;;;19.65;70.99;101261.66;5052665;28;20031;-75
2022/06/23 07:06:15;;;;;;;13.65;6.47;;;;;;;19.81;70.90;101260.66;5051016;28;20112;-75
2022/06/23 07:08:50;;;;;;;14.73;6.22;;;;;;;20.11;70.20;101260.56;5051080;28;20096;-75
2022/06/23 07:11:28;;;;;;;14.55;6.07;;;;;;;20.25;69.36;101253.41;5052755;28;20035;-75
2022/06/23 07:14:37;;;;;;;10.32;6.47;;;;;;;20.46;68.66;101265.25;5051246;28;20021;-75
2022/06/23 07:17:28;;;;;;;8.70;6.07;;;;;;;20.58;68.23;101282.63;5046938;28;20216;-75
2022/06/23 07:20:01;;;;;;;11.02;6.32;;;;;;;20.72;68.43;101270.91;5055384;28;20360;-75
2022/06/23 07:22:39;;;;;;;14.20;6.05;;;;;;;20.81;67.33;101274.31;5056789;28;20032;-75
2022/06/23 07:25:15;;;;;;;13.60;6.40;;;;;;;20.99;68.02;101264.84;5056912;28;20110;-75
2022/06/23 07:27:53;;;;;;;17.38;6.40;;;;;;;21.02;65.36;101267.16;5056762;28;20150;-75
2022/06/23 07:30:25;;;;;;;10.25;6.03;;;;;;;21.25;66.37;101267.72;5055828;28;20410;-76
2022/06/23 07:33:19;;;;;;;10.82;5.63;;;;;;;21.58;65.91;101266.25;5056825;28;20049;-75
2022/06/23 07:35:53;;;;;;;12.70;5.50;;;;;;;21.76;64.26;101261.13;5055102;28;20095;-75
2022/06/23 07:39:03;;;;;;;15.95;5.50;;;;;;;21.91;63.01;101266.38;5056211;28;20049;-76
2022/06/23 07:41:53;;;;;;;7.60;5.30;;;;;;;22.09;61.86;101268.50;5050638;28;20029;-75
2022/06/23 07:44:28;;;;;;;12.80;5.43;;;;;;;22.20;59.35;101275.22;5055732;28;20250;-76
2022/06/23 07:46:54;;;;;;;8.63;5.60;;;;;;;22.30;60.04;101270.22;5056311;28;20021;-74
2022/06/23 07:49:20;;;;;;;11.07;5.80;;;;;;;22.36;57.71;101276.69;5054730;28;20119;-75
2022/06/23 07:51:46;;;;;;;9.65;5.65;;;;;;;22.24;57.95;101281.03;5054286;28;20025;-75
2022/06/23 07:54:17;;;;;;;13.02;5.93;;;;;;;22.37;58.95;101272.97;5054480;28;20029;-75
2022/06/23 07:56:43;;;;;;;13.45;5.88;;;;;;;22.47;59.67;101272.56;5055547;28;20028;-75
2022/06/23 07:59:15;;;;;;;8.60;6.53;;;;;;;22.62;56.27;101262.34;5055986;28;20029;-75
2022/06/23 08:02:09;;;;;;;7.70;5.15;;;;;;;22.75;56.54;101269.66;5055466;28;20092;-75
2022/06/23 08:04:46;;;;;;;13.30;5.72;;;;;;;23.03;56.43;101257.69;5054306;28;20390;-74
2022/06/23 08:07:12;;;;;;;10.73;5.43;;;;;;;23.22;56.97;101258.75;5055690;28;20306;-74
2022/06/23 08:09:46;;;;;;;11.30;6.28;;;;;;;23.44;55.60;101266.59;5037553;28;20033;-74
2022/06/23 08:18:13;;;;;;;12.20;6.13;;;;;;;23.76;56.47;101256.66;5053738;28;20112;-75
2022/06/23 08:20:46;;;;;;;10.57;6.30;;;;;;;23.91;55.78;101259.94;5055252;28;20132;-75
2022/06/23 08:23:14;;;;;;;9.50;5.63;;;;;;;24.19;55.97;101249.75;5055227;28;20065;-75
2022/06/23 08:25:41;;;;;;;12.73;5.68;;;;;;;24.31;54.56;101247.97;5055376;28;20086;-75
2022/06/23 08:28:06;;;;;;;12.73;5.28;;;;;;;24.69;54.69;101247.03;5055028;28;20041;-76
2022/06/23 08:30:36;;;;;;;9.10;5.40;;;;;;;25.02;52.79;101235.03;5055386;28;20044;-76
2022/06/23 08:33:03;;;;;;;17.10;6.22;;;;;;;25.28;51.44;101235.78;5055585;28;20028;-77
2022/06/23 08:35:47;;;;;;;9.77;5.85;;;;;;;25.54;50.12;101234.63;5055022;28;20025;-76
2022/06/23 08:38:23;;;;;;;10.13;6.07;;;;;;;25.92;48.56;101238.13;5053280;28;20513;-77
2022/06/23 08:41:03;;;;;;;18.95;5.75;;;;;;;26.50;47.51;101234.72;5054947;28;20025;-77
2022/06/23 08:43:35;;;;;;;12.68;5.75;;;;;;;27.08;46.06;101234.94;5054974;28;20420;-75
2022/06/23 08:46:22;;;;;;;15.77;6.30;;;;;;;27.34;45.04;101230.91;5054899;28;20028;-75
2022/06/23 08:48:47;;;;;;;10.80;5.90;;;;;;;27.22;44.10;101230.06;5053747;28;20120;-75
2022/06/23 08:51:22;;;;;;;11.05;5.70;;;;;;;27.77;43.19;101229.56;5054626;28;20118;-76
2022/06/23 08:53:58;;;;;;;8.80;5.97;;;;;;;28.36;42.18;101225.66;5053305;28;20029;-71
2022/06/23 08:56:33;;;;;;;13.57;5.93;;;;;;;28.99;40.26;101229.09;5053308;28;20021;-73
2022/06/23 08:59:20;;;;;;;14.00;5.38;;;;;;;29.84;40.97;101226.03;5053071;28;20028;-73
2022/06/23 09:02:13;;;;;;;11.52;6.45;;;;;;;30.03;38.39;101222.91;5054915;28;20021;-73
2022/06/23 09:04:46;;;;;;;12.00;5.85;;;;;;;30.90;37.36;101222.72;5054324;28;20029;-75
2022/06/23 09:07:34;;;;;;;13.43;5.72;;;;;;;31.64;36.42;101223.63;5054541;28;20017;-75
2022/06/23 09:10:25;;;;;;;11.80;5.32;;;;;;;32.09;34.66;101211.00;5052955;28;20396;-75
2022/06/23 09:13:00;;;;;;;13.23;5.40;;;;;;;32.32;34.51;101211.59;5032374;28;20052;-74
2022/06/23 09:15:48;;;;;;;10.68;6.47;;;;;;;32.11;33.23;101208.88;5054321;28;20029;-75
2022/06/23 09:18:50;;;;;;;14.80;5.57;;;;;;;32.79;34.07;101206.84;5054622;28;20418;-74
2022/06/23 09:21:24;;;;;;;10.80;6.10;;;;;;;32.82;32.82;101206.28;5054193;28;20372;-77
2022/06/23 09:23:58;;;;;;;12.68;6.00;;;;;;;32.76;34.07;101213.75;5054188;28;20056;-74
2022/06/23 09:26:49;;;;;;;10.20;5.68;;;;;;;33.73;31.64;101204.22;5054103;28;20094;-74
2022/06/23 09:29:36;;;;;;;16.48;5.40;;;;;;;33.71;32.12;101202.81;5053716;28;20030;-74
2022/06/23 09:32:12;;;;;;;15.23;6.00;;;;;;;34.06;32.44;101199.00;5053939;28;20027;-74
2022/06/23 09:34:59;;;;;;;17.48;5.60;;;;;;;34.30;31.73;101201.03;5054124;28;20024;-75
2022/06/23 09:37:54;;;;;;;17.23;6.03;;;;;;;34.27;31.43;101198.84;5053651;28;20140;-75
2022/06/23 09:40:29;;;;;;;11.45;5.40;;;;;;;34.68;31.17;101208.66;5053871;28;20445;-74
2022/06/23 09:43:07;;;;;;;15.77;5.05;;;;;;;35.08;30.29;101192.72;5053038;28;20025;-74
2022/06/23 09:45:50;;;;;;;13.32;5.72;;;;;;;34.28;31.68;101194.16;5053889;28;20107;-74
2022/06/23 09:48:43;;;;;;;11.80;5.90;;;;;;;34.82;31.67;101195.81;5053338;28;20452;-74
2022/06/23 09:51:39;;;;;;;15.45;5.82;;;;;;;35.04;31.57;101192.50;5053653;28;20060;-74
2022/06/23 09:54:30;;;;;;;13.63;5.97;;;;;;;34.82;31.00;101187.53;5053336;28;20033;-75
2022/06/23 09:57:16;;;;;;;16.15;5.97;;;;;;;34.94;32.67;101187.91;5053326;28;20021;-75
2022/06/23 09:59:51;;;;;;;19.50;5.80;;;;;;;35.15;31.21;101187.66;5053223;28;20035;-74
2022/06/23 10:02:31;;;;;;;15.02;6.07;;;;;;;35.39;31.32;101189.59;5053282;28;20465;-76
2022/06/23 10:05:17;;;;;;;17.38;6.13;;;;;;;35.42;31.68;101192.56;5053115;28;20029;-74
2022/06/23 10:07:59;;;;;;;12.70;5.90;;;;;;;35.37;31.06;101191.81;5053227;28;20032;-75
2022/06/23 10:10:44;;;;;;;10.88;6.07;;;;;;;34.85;32.77;101188.88;5053306;28;20045;-73
2022/06/23 10:13:25;;;;;;;13.63;5.70;;;;;;;35.30;31.85;101189.44;5052993;28;20055;-77
2022/06/23 10:15:53;;;;;;;;;;;;;;;35.10;31.05;101188.56;5054135;28;20112;-73
2022/06/23 10:18:35;;;;;;;14.32;5.55;;;;;;;35.26;31.98;101182.81;5052878;28;19951;-74
2022/06/23 10:21:13;;;;;;;13.23;6.07;;;;;;;34.94;32.34;101187.91;5053244;28;20036;-75
2022/06/23 10:23:55;;;;;;;15.68;6.18;;;;;;;35.04;32.66;101189.75;5053021;28;20032;-74
2022/06/23 10:27:05;;;;;;;11.77;5.93;;;;;;;34.52;32.61;101185.91;5052789;28;20025;-77
2022/06/23 10:29:36;;;;;;;;;;;;;;;34.08;34.37;101185.75;5042435;28;20041;-74
2022/06/23 10:32:17;;;;;;;13.95;5.15;;;;;;;34.50;34.02;101179.84;5052846;28;19995;-76
2022/06/23 10:35:02;;;;;;;;;;;;;;;35.11;32.44;101170.88;5053310;28;20039;-75
2022/06/23 10:37:36;;;;;;;11.10;5.63;;;;;;;35.09;32.83;101167.56;5052623;28;19904;-76
2022/06/23 10:40:15;;;;;;;10.35;5.10;;;;;;;34.98;32.90;101157.75;5052806;28;20025;-76
2022/06/23 10:42:51;;;;;;;15.25;5.55;;;;;;;34.99;34.18;101156.63;5052923;28;20080;-76
2022/06/23 10:45:35;;;;;;;11.68;4.70;;;;;;;35.23;33.21;101159.34;5052973;28;20024;-76
2022/06/23 10:48:04;;;;;;;17.55;5.97;;;;;;;35.98;31.74;101146.59;5052925;28;20490;-76
2022/06/23 10:50:33;;;;;;;12.70;6.18;;;;;;;35.98;31.46;101149.38;5050965;28;20025;-76
2022/06/23 10:53:07;;;;;;;11.35;5.40;;;;;;;35.82;31.94;101140.50;5051685;28;20071;-75
2022/06/23 10:55:54;;;;;;;14.32;5.50;;;;;;;35.37;32.30;101142.03;5052930;28;20029;-75
2022/06/23 10:58:37;;;;;;;14.75;5.90;;;;;;;36.07;31.67;101134.81;5052884;28;20021;-75
2022/06/23 11:01:10;;;;;;;14.27;5.65;;;;;;;36.13;31.73;101126.13;5052775;28;20021;-75
2022/06/23 11:04:16;;;;;;;13.07;4.45;;;;;;;36.70;31.48;101125.03;5052413;28;20044;-75
2022/06/23 11:06:41;;;;;;;10.82;4.88;;;;;;;36.59;30.74;101129.16;5052434;28;20025;-75
2022/06/23 11:09:15;;;;;;;14.80;5.85;;;;;;;35.86;31.10;101121.38;5052510;28;20113;-75
2022/06/23 11:11:58;;;;;;;14.43;5.35;;;;;;;35.85;31.22;101121.66;5052626;28;20052;-74
2022/06/23 11:14:57;;;;;;;16.98;5.50;;;;;;;35.27;32.23;101127.25;5053015;28;20122;-77
2022/06/23 11:17:52;;;;;;;10.85;4.78;;;;;;;35.03;33.13;101127.28;5052383;28;20489;-76
2022/06/23 11:20:54;;;;;;;14.25;4.57;;;;;;;35.55;32.02;101130.13;5053260;28;20028;-74
2022/06/23 11:23:38;;;;;;;12.10;4.45;;;;;;;35.22;32.05;101130.06;5053157;28;20028;-74
2022/06/23 11:26:35;;;;;;;12.30;4.00;;;;;;;33.69;34.83;101128.63;5051633;28;20035;-75
2022/06/23 11:29:06;;;;;;;20.42;4.60;;;;;;;32.30;37.18;101126.53;5052570;28;20483;-76
2022/06/23 11:32:17;;;;;;;10.80;4.40;;;;;;;32.28;38.12;101126.00;5052265;28;20028;-75
2022/06/23 11:35:04;;;;;;;15.13;4.32;;;;;;;33.18;36.23;101129.78;5052256;28;20032;-77
2022/06/23 11:37:54;;;;;;;15.63;4.43;;;;;;;33.46;34.62;101130.19;5052571;28;20425;-75
2022/06/23 11:40:35;;;;;;;11.43;3.95;;;;;;;33.85;34.47;101128.56;5052226;28;20033;-75
2022/06/23 11:43:17;;;;;;;13.75;4.88;;;;;;;33.75;34.07;101121.19;5051881;28;20117;-75
2022/06/23 11:45:57;;;;;;;15.32;4.68;;;;;;;33.51;34.71;101116.38;5051872;28;20025;-76
2022/06/23 11:48:25;;;;;;;14.88;4.82;;;;;;;33.72;35.42;101111.50;5052522;28;20353;-75
2022/06/23 11:51:09;;;;;;;15.30;5.22;;;;;;;34.31;34.58;101114.34;5051768;28;20029;-75
2022/06/23 11:54:20;;;;;;;12.02;4.93;;;;;;;34.22;33.42;101116.88;5051651;28;20021;-74
2022/06/23 11:56:56;;;;;;;14.63;4.93;;;;;;;33.95;33.81;101105.53;5051975;28;20036;-76
2022/06/23 11:59:49;;;;;;;13.10;4.60;;;;;;;34.21;33.80;101103.38;5051952;28;20117;-75
2022/06/23 12:02:15;;;;;;;13.48;4.72;;;;;;;34.49;34.70;101103.66;5051653;28;20087;-76
2022/06/23 12:05:03;;;;;;;15.55;4.90;;;;;;;34.84;33.21;101102.38;5053392;28;20032;-76
2022/06/23 12:07:31;;;;;;;14.20;4.78;;;;;;;34.37;32.36;101098.53;5054752;28;20041;-74
2022/06/23 12:10:20;;;;;;;9.00;4.63;;;;;;;33.90;35.10;101098.16;5055618;28;20057;-75
2022/06/23 12:12:49;;;;;;;15.43;5.05;;;;;;;34.20;34.55;101101.72;5056093;28;20025;-75
2022/06/23 12:15:20;;;;;;;18.05;5.13;;;;;;;35.01;32.99;101093.59;5055540;28;20049;-75
2022/06/23 12:17:55;;;;;;;14.82;4.80;;;;;;;36.08;31.16;101098.50;5056017;28;20082;-76